sensor_id;sensor_type;location;lat;lon;timestamp;P1;durP1;ratioP1;P2;durP2;ratioP2
46897;SDS011;32646;50.958;6.258;2023-08-17T00:01:19;12.52;;;6.90;;
46897;SDS011;32646;50.958;6.258;2023-08-17T00:03:45;12.70;;;6.50;;
46897;SDS011;32646;50.958;6.258;2023-08-17T00:06:12;12.23;;;6.50;;
46897;SDS011;32646;50.958;6.258;2023-08-17T00:08:39;13.57;;;6.30;;
46897;SDS011;32646;50.958;6.258;2023-08-17T00:11:05;9.63;;;5.93;;
46897;SDS011;32646;50.958;6.258;2023-08-17T00:13:32;10.45;;;5.95;;
46897;SDS011;32646;50.958;6.258;2023-08-17T00:15:58;11.98;;;5.43;;
46897;SDS011;32646;50.958;6.258;2023-08-17T00:18:25;11.93;;;6.03;;
46897;SDS011;32646;50.958;6.258;2023-08-17T00:20:52;11.07;;;5.88;;
46897;SDS011;32646;50.958;6.258;2023-08-17T00:23:18;10.05;;;5.75;;
46897;SDS011;32646;50.958;6.258;2023-08-17T00:25:45;11.13;;;5.53;;
46897;SDS011;32646;50.958;6.258;2023-08-17T00:28:12;10.75;;;5.25;;
46897;SDS011;32646;50.958;6.258;2023-08-17T00:30:38;10.75;;;6.40;;
46897;SDS011;32646;50.958;6.258;2023-08-17T00:33:05;10.25;;;6.28;;
46897;SDS011;32646;50.958;6.258;2023-08-17T00:35:32;12.35;;;6.20;;
46897;SDS011;32646;50.958;6.258;2023-08-17T00:37:59;11.43;;;5.38;;
46897;SDS011;32646;50.958;6.258;2023-08-17T00:40:26;10.93;;;5.75;;
46897;SDS011;32646;50.958;6.258;2023-08-17T00:42:52;11.80;;;6.05;;
46897;SDS011;32646;50.958;6.258;2023-08-17T00:45:19;9.60;;;5.50;;
46897;SDS011;32646;50.958;6.258;2023-08-17T00:47:45;10.52;;;5.40;;
46897;SDS011;32646;50.958;6.258;2023-08-17T00:50:12;10.15;;;5.55;;
46897;SDS011;32646;50.958;6.258;2023-08-17T00:52:41;10.02;;;5.85;;
46897;SDS011;32646;50.958;6.258;2023-08-17T00:55:08;11.25;;;5.30;;
46897;SDS011;32646;50.958;6.258;2023-08-17T00:57:37;12.13;;;6.75;;
46897;SDS011;32646;50.958;6.258;2023-08-17T01:00:05;8.85;;;5.57;;
46897;SDS011;32646;50.958;6.258;2023-08-17T01:02:32;9.60;;;5.75;;
46897;SDS011;32646;50.958;6.258;2023-08-17T01:05:00;12.98;;;6.13;;
46897;SDS011;32646;50.958;6.258;2023-08-17T01:07:27;9.73;;;5.18;;
46897;SDS011;32646;50.958;6.258;2023-08-17T01:09:54;12.93;;;6.13;;
46897;SDS011;32646;50.958;6.258;2023-08-17T01:15:31;12.45;;;6.10;;
46897;SDS011;32646;50.958;6.258;2023-08-17T01:18:04;12.02;;;5.45;;
46897;SDS011;32646;50.958;6.258;2023-08-17T01:20:34;10.48;;;5.70;;
46897;SDS011;32646;50.958;6.258;2023-08-17T01:23:04;10.73;;;5.97;;
46897;SDS011;32646;50.958;6.258;2023-08-17T01:25:32;11.60;;;6.03;;
46897;SDS011;32646;50.958;6.258;2023-08-17T01:27:59;11.10;;;5.43;;
46897;SDS011;32646;50.958;6.258;2023-08-17T01:30:25;10.48;;;5.38;;
46897;SDS011;32646;50.958;6.258;2023-08-17T01:33:03;10.30;;;5.10;;
46897;SDS011;32646;50.958;6.258;2023-08-17T01:35:37;11.27;;;5.28;;
46897;SDS011;32646;50.958;6.258;2023-08-17T01:38:09;10.25;;;5.55;;
46897;SDS011;32646;50.958;6.258;2023-08-17T01:40:40;8.88;;;5.25;;
46897;SDS011;32646;50.958;6.258;2023-08-17T01:43:08;9.68;;;6.50;;
46897;SDS011;32646;50.958;6.258;2023-08-17T01:45:36;8.70;;;5.70;;
46897;SDS011;32646;50.958;6.258;2023-08-17T01:48:02;9.85;;;5.32;;
46897;SDS011;32646;50.958;6.258;2023-08-17T01:50:29;11.70;;;6.60;;
46897;SDS011;32646;50.958;6.258;2023-08-17T01:52:56;11.25;;;6.20;;
46897;SDS011;32646;50.958;6.258;2023-08-17T01:55:22;11.27;;;6.13;;
46897;SDS011;32646;50.958;6.258;2023-08-17T01:57:49;11.48;;;6.20;;
46897;SDS011;32646;50.958;6.258;2023-08-17T02:00:16;10.20;;;6.13;;
46897;SDS011;32646;50.958;6.258;2023-08-17T02:02:42;13.32;;;6.22;;
46897;SDS011;32646;50.958;6.258;2023-08-17T02:05:09;14.98;;;6.78;;
46897;SDS011;32646;50.958;6.258;2023-08-17T02:07:36;11.68;;;6.18;;
46897;SDS011;32646;50.958;6.258;2023-08-17T02:10:03;11.07;;;6.80;;
46897;SDS011;32646;50.958;6.258;2023-08-17T02:12:30;12.68;;;6.72;;
46897;SDS011;32646;50.958;6.258;2023-08-17T02:14:56;12.85;;;7.50;;
46897;SDS011;32646;50.958;6.258;2023-08-17T02:17:23;11.52;;;6.82;;
46897;SDS011;32646;50.958;6.258;2023-08-17T02:19:50;14.98;;;7.80;;
46897;SDS011;32646;50.958;6.258;2023-08-17T02:22:17;12.15;;;8.00;;
46897;SDS011;32646;50.958;6.258;2023-08-17T02:24:43;11.30;;;6.30;;
46897;SDS011;32646;50.958;6.258;2023-08-17T02:27:10;10.80;;;6.68;;
46897;SDS011;32646;50.958;6.258;2023-08-17T02:29:36;11.23;;;6.72;;
46897;SDS011;32646;50.958;6.258;2023-08-17T02:32:03;10.98;;;6.70;;
46897;SDS011;32646;50.958;6.258;2023-08-17T02:34:30;10.25;;;6.47;;
46897;SDS011;32646;50.958;6.258;2023-08-17T02:36:57;11.02;;;6.38;;
46897;SDS011;32646;50.958;6.258;2023-08-17T02:39:24;12.85;;;7.28;;
46897;SDS011;32646;50.958;6.258;2023-08-17T02:41:51;12.55;;;7.03;;
46897;SDS011;32646;50.958;6.258;2023-08-17T02:44:18;11.43;;;7.45;;
46897;SDS011;32646;50.958;6.258;2023-08-17T02:46:44;10.45;;;6.10;;
46897;SDS011;32646;50.958;6.258;2023-08-17T02:49:11;10.85;;;6.10;;
46897;SDS011;32646;50.958;6.258;2023-08-17T02:51:38;12.10;;;6.43;;
46897;SDS011;32646;50.958;6.258;2023-08-17T02:54:04;13.10;;;6.93;;
46897;SDS011;32646;50.958;6.258;2023-08-17T02:56:31;10.00;;;6.53;;
46897;SDS011;32646;50.958;6.258;2023-08-17T02:58:57;12.23;;;7.22;;
46897;SDS011;32646;50.958;6.258;2023-08-17T03:01:24;12.50;;;7.88;;
46897;SDS011;32646;50.958;6.258;2023-08-17T03:03:51;11.05;;;7.25;;
46897;SDS011;32646;50.958;6.258;2023-08-17T03:06:17;12.07;;;7.30;;
46897;SDS011;32646;50.958;6.258;2023-08-17T03:08:44;10.90;;;7.15;;
46897;SDS011;32646;50.958;6.258;2023-08-17T03:11:11;11.20;;;7.45;;
46897;SDS011;32646;50.958;6.258;2023-08-17T03:13:37;12.27;;;7.32;;
46897;SDS011;32646;50.958;6.258;2023-08-17T03:16:04;11.85;;;7.13;;
46897;SDS011;32646;50.958;6.258;2023-08-17T03:18:30;12.35;;;7.68;;
46897;SDS011;32646;50.958;6.258;2023-08-17T03:20:57;12.40;;;7.70;;
46897;SDS011;32646;50.958;6.258;2023-08-17T03:23:24;14.30;;;7.65;;
46897;SDS011;32646;50.958;6.258;2023-08-17T03:25:51;11.75;;;6.90;;
46897;SDS011;32646;50.958;6.258;2023-08-17T03:28:18;12.38;;;7.35;;
46897;SDS011;32646;50.958;6.258;2023-08-17T03:30:45;12.20;;;7.05;;
46897;SDS011;32646;50.958;6.258;2023-08-17T03:33:12;12.68;;;7.22;;
46897;SDS011;32646;50.958;6.258;2023-08-17T03:35:38;10.25;;;6.22;;
46897;SDS011;32646;50.958;6.258;2023-08-17T03:38:05;14.77;;;7.60;;
46897;SDS011;32646;50.958;6.258;2023-08-17T03:40:31;13.68;;;7.05;;
46897;SDS011;32646;50.958;6.258;2023-08-17T03:42:58;10.95;;;7.28;;
46897;SDS011;32646;50.958;6.258;2023-08-17T03:45:25;10.88;;;6.10;;
46897;SDS011;32646;50.958;6.258;2023-08-17T03:47:51;10.63;;;6.72;;
46897;SDS011;32646;50.958;6.258;2023-08-17T03:50:18;11.00;;;6.35;;
46897;SDS011;32646;50.958;6.258;2023-08-17T03:52:45;9.93;;;6.35;;
46897;SDS011;32646;50.958;6.258;2023-08-17T03:55:11;10.45;;;5.68;;
46897;SDS011;32646;50.958;6.258;2023-08-17T03:57:38;12.07;;;6.25;;
46897;SDS011;32646;50.958;6.258;2023-08-17T04:00:05;10.90;;;6.18;;
46897;SDS011;32646;50.958;6.258;2023-08-17T04:02:33;10.82;;;6.55;;
46897;SDS011;32646;50.958;6.258;2023-08-17T04:04:59;10.55;;;6.13;;
46897;SDS011;32646;50.958;6.258;2023-08-17T04:07:26;14.00;;;6.88;;
46897;SDS011;32646;50.958;6.258;2023-08-17T04:09:53;12.38;;;6.97;;
46897;SDS011;32646;50.958;6.258;2023-08-17T04:12:20;11.95;;;6.30;;
46897;SDS011;32646;50.958;6.258;2023-08-17T04:14:46;15.48;;;6.68;;
46897;SDS011;32646;50.958;6.258;2023-08-17T04:17:13;12.98;;;6.82;;
46897;SDS011;32646;50.958;6.258;2023-08-17T04:19:40;13.70;;;5.72;;
46897;SDS011;32646;50.958;6.258;2023-08-17T04:22:06;13.55;;;6.70;;
46897;SDS011;32646;50.958;6.258;2023-08-17T04:24:33;14.27;;;6.65;;
46897;SDS011;32646;50.958;6.258;2023-08-17T04:27:00;13.50;;;7.32;;
46897;SDS011;32646;50.958;6.258;2023-08-17T04:29:26;12.93;;;7.47;;
46897;SDS011;32646;50.958;6.258;2023-08-17T04:31:53;11.98;;;7.22;;
46897;SDS011;32646;50.958;6.258;2023-08-17T04:34:20;13.55;;;6.97;;
46897;SDS011;32646;50.958;6.258;2023-08-17T04:36:46;16.85;;;7.50;;
46897;SDS011;32646;50.958;6.258;2023-08-17T04:39:13;14.90;;;7.70;;
46897;SDS011;32646;50.958;6.258;2023-08-17T04:41:39;15.73;;;7.95;;
46897;SDS011;32646;50.958;6.258;2023-08-17T04:44:06;16.40;;;8.43;;
46897;SDS011;32646;50.958;6.258;2023-08-17T04:46:33;16.27;;;8.57;;
46897;SDS011;32646;50.958;6.258;2023-08-17T04:48:59;21.92;;;10.25;;
46897;SDS011;32646;50.958;6.258;2023-08-17T04:51:26;20.40;;;10.85;;
46897;SDS011;32646;50.958;6.258;2023-08-17T04:53:52;24.77;;;10.93;;
46897;SDS011;32646;50.958;6.258;2023-08-17T04:56:19;21.55;;;10.20;;
46897;SDS011;32646;50.958;6.258;2023-08-17T04:58:46;22.02;;;10.90;;
46897;SDS011;32646;50.958;6.258;2023-08-17T05:01:12;23.60;;;11.95;;
46897;SDS011;32646;50.958;6.258;2023-08-17T05:03:39;26.25;;;13.55;;
46897;SDS011;32646;50.958;6.258;2023-08-17T05:06:06;25.48;;;12.27;;
46897;SDS011;32646;50.958;6.258;2023-08-17T05:08:33;29.65;;;12.95;;
46897;SDS011;32646;50.958;6.258;2023-08-17T05:10:59;24.42;;;12.07;;
46897;SDS011;32646;50.958;6.258;2023-08-17T05:13:26;28.80;;;14.07;;
46897;SDS011;32646;50.958;6.258;2023-08-17T05:15:53;27.15;;;13.05;;
46897;SDS011;32646;50.958;6.258;2023-08-17T05:18:19;26.10;;;13.30;;
46897;SDS011;32646;50.958;6.258;2023-08-17T05:20:47;24.83;;;11.35;;
46897;SDS011;32646;50.958;6.258;2023-08-17T05:23:13;27.00;;;13.10;;
46897;SDS011;32646;50.958;6.258;2023-08-17T05:25:40;26.42;;;11.40;;
46897;SDS011;32646;50.958;6.258;2023-08-17T05:28:07;26.17;;;11.75;;
46897;SDS011;32646;50.958;6.258;2023-08-17T05:30:33;25.67;;;10.85;;
46897;SDS011;32646;50.958;6.258;2023-08-17T05:33:00;23.90;;;11.95;;
46897;SDS011;32646;50.958;6.258;2023-08-17T05:35:27;22.23;;;12.25;;
46897;SDS011;32646;50.958;6.258;2023-08-17T05:37:53;22.30;;;12.82;;
46897;SDS011;32646;50.958;6.258;2023-08-17T05:40:20;23.20;;;12.15;;
46897;SDS011;32646;50.958;6.258;2023-08-17T05:42:46;24.77;;;11.85;;
46897;SDS011;32646;50.958;6.258;2023-08-17T05:45:13;22.52;;;12.07;;
46897;SDS011;32646;50.958;6.258;2023-08-17T05:47:40;25.77;;;11.57;;
46897;SDS011;32646;50.958;6.258;2023-08-17T05:50:06;25.35;;;11.85;;
46897;SDS011;32646;50.958;6.258;2023-08-17T05:52:33;26.58;;;12.00;;
46897;SDS011;32646;50.958;6.258;2023-08-17T05:55:00;26.77;;;11.32;;
46897;SDS011;32646;50.958;6.258;2023-08-17T05:57:27;25.58;;;11.68;;
46897;SDS011;32646;50.958;6.258;2023-08-17T05:59:54;21.92;;;11.02;;
46897;SDS011;32646;50.958;6.258;2023-08-17T06:02:20;25.00;;;11.60;;
46897;SDS011;32646;50.958;6.258;2023-08-17T06:04:47;24.73;;;11.13;;
46897;SDS011;32646;50.958;6.258;2023-08-17T06:07:14;20.95;;;11.10;;
46897;SDS011;32646;50.958;6.258;2023-08-17T06:09:41;21.70;;;10.43;;
46897;SDS011;32646;50.958;6.258;2023-08-17T06:12:07;21.00;;;10.52;;
46897;SDS011;32646;50.958;6.258;2023-08-17T06:14:34;24.85;;;11.63;;
46897;SDS011;32646;50.958;6.258;2023-08-17T06:17:01;25.48;;;10.63;;
46897;SDS011;32646;50.958;6.258;2023-08-17T06:19:27;23.02;;;11.57;;
46897;SDS011;32646;50.958;6.258;2023-08-17T06:21:54;23.90;;;11.68;;
46897;SDS011;32646;50.958;6.258;2023-08-17T06:24:21;28.17;;;12.50;;
46897;SDS011;32646;50.958;6.258;2023-08-17T06:26:47;26.25;;;12.27;;
46897;SDS011;32646;50.958;6.258;2023-08-17T06:29:14;21.92;;;10.35;;
46897;SDS011;32646;50.958;6.258;2023-08-17T06:31:40;22.85;;;11.45;;
46897;SDS011;32646;50.958;6.258;2023-08-17T06:34:07;21.60;;;11.55;;
46897;SDS011;32646;50.958;6.258;2023-08-17T06:36:37;23.73;;;11.77;;
46897;SDS011;32646;50.958;6.258;2023-08-17T06:39:04;22.45;;;11.05;;
46897;SDS011;32646;50.958;6.258;2023-08-17T06:41:31;25.67;;;11.60;;
46897;SDS011;32646;50.958;6.258;2023-08-17T06:43:57;25.08;;;11.25;;
46897;SDS011;32646;50.958;6.258;2023-08-17T06:46:24;20.90;;;10.82;;
46897;SDS011;32646;50.958;6.258;2023-08-17T06:48:51;21.05;;;11.43;;
46897;SDS011;32646;50.958;6.258;2023-08-17T06:51:18;21.85;;;11.20;;
46897;SDS011;32646;50.958;6.258;2023-08-17T06:53:44;21.85;;;10.50;;
46897;SDS011;32646;50.958;6.258;2023-08-17T06:56:11;22.13;;;10.98;;
46897;SDS011;32646;50.958;6.258;2023-08-17T06:58:37;23.15;;;12.00;;
46897;SDS011;32646;50.958;6.258;2023-08-17T07:01:04;23.02;;;11.45;;
46897;SDS011;32646;50.958;6.258;2023-08-17T07:03:31;18.90;;;10.02;;
46897;SDS011;32646;50.958;6.258;2023-08-17T07:05:57;20.77;;;10.90;;
46897;SDS011;32646;50.958;6.258;2023-08-17T07:08:24;22.63;;;9.70;;
46897;SDS011;32646;50.958;6.258;2023-08-17T07:10:50;20.60;;;10.27;;
46897;SDS011;32646;50.958;6.258;2023-08-17T07:13:17;18.50;;;9.15;;
46897;SDS011;32646;50.958;6.258;2023-08-17T07:15:44;22.08;;;10.68;;
46897;SDS011;32646;50.958;6.258;2023-08-17T07:18:10;19.23;;;9.75;;
46897;SDS011;32646;50.958;6.258;2023-08-17T07:20:37;18.90;;;8.85;;
46897;SDS011;32646;50.958;6.258;2023-08-17T07:23:04;18.65;;;9.90;;
46897;SDS011;32646;50.958;6.258;2023-08-17T07:25:30;21.85;;;10.68;;
46897;SDS011;32646;50.958;6.258;2023-08-17T07:27:57;18.02;;;10.13;;
46897;SDS011;32646;50.958;6.258;2023-08-17T07:30:23;18.48;;;9.50;;
46897;SDS011;32646;50.958;6.258;2023-08-17T07:32:50;20.27;;;9.80;;
46897;SDS011;32646;50.958;6.258;2023-08-17T07:35:17;23.25;;;10.30;;
46897;SDS011;32646;50.958;6.258;2023-08-17T07:37:43;19.50;;;9.93;;
46897;SDS011;32646;50.958;6.258;2023-08-17T07:40:24;18.05;;;9.45;;
46897;SDS011;32646;50.958;6.258;2023-08-17T07:42:51;20.70;;;10.38;;
46897;SDS011;32646;50.958;6.258;2023-08-17T07:45:18;20.55;;;9.63;;
46897;SDS011;32646;50.958;6.258;2023-08-17T07:47:44;21.60;;;10.13;;
46897;SDS011;32646;50.958;6.258;2023-08-17T07:50:11;19.77;;;10.68;;
46897;SDS011;32646;50.958;6.258;2023-08-17T07:52:38;18.98;;;10.75;;
46897;SDS011;32646;50.958;6.258;2023-08-17T07:55:04;23.80;;;10.70;;
46897;SDS011;32646;50.958;6.258;2023-08-17T07:57:31;19.17;;;9.55;;
46897;SDS011;32646;50.958;6.258;2023-08-17T07:59:58;21.88;;;10.02;;
46897;SDS011;32646;50.958;6.258;2023-08-17T08:02:24;17.98;;;9.20;;
46897;SDS011;32646;50.958;6.258;2023-08-17T08:04:51;18.92;;;10.07;;
46897;SDS011;32646;50.958;6.258;2023-08-17T08:07:18;19.30;;;9.88;;
46897;SDS011;32646;50.958;6.258;2023-08-17T08:09:44;16.52;;;9.82;;
46897;SDS011;32646;50.958;6.258;2023-08-17T08:12:11;17.40;;;9.60;;
46897;SDS011;32646;50.958;6.258;2023-08-17T08:14:38;17.10;;;9.35;;
46897;SDS011;32646;50.958;6.258;2023-08-17T08:17:04;15.40;;;8.32;;
46897;SDS011;32646;50.958;6.258;2023-08-17T08:19:31;14.65;;;8.40;;
46897;SDS011;32646;50.958;6.258;2023-08-17T08:21:58;15.98;;;9.45;;
46897;SDS011;32646;50.958;6.258;2023-08-17T08:24:25;15.48;;;8.20;;
46897;SDS011;32646;50.958;6.258;2023-08-17T08:27:02;14.52;;;8.05;;
46897;SDS011;32646;50.958;6.258;2023-08-17T08:29:29;17.58;;;8.18;;
46897;SDS011;32646;50.958;6.258;2023-08-17T08:31:56;13.88;;;8.25;;
46897;SDS011;32646;50.958;6.258;2023-08-17T08:34:23;16.90;;;8.77;;
46897;SDS011;32646;50.958;6.258;2023-08-17T08:36:49;13.23;;;8.15;;
46897;SDS011;32646;50.958;6.258;2023-08-17T08:39:16;16.42;;;8.40;;
46897;SDS011;32646;50.958;6.258;2023-08-17T08:41:42;13.25;;;8.30;;
46897;SDS011;32646;50.958;6.258;2023-08-17T08:44:09;15.30;;;7.95;;
46897;SDS011;32646;50.958;6.258;2023-08-17T08:46:36;16.48;;;8.88;;
46897;SDS011;32646;50.958;6.258;2023-08-17T08:49:06;18.30;;;9.98;;
46897;SDS011;32646;50.958;6.258;2023-08-17T08:51:36;17.77;;;9.52;;
46897;SDS011;32646;50.958;6.258;2023-08-17T08:54:07;18.42;;;10.57;;
46897;SDS011;32646;50.958;6.258;2023-08-17T08:56:37;19.38;;;9.63;;
46897;SDS011;32646;50.958;6.258;2023-08-17T08:59:12;17.98;;;10.00;;
46897;SDS011;32646;50.958;6.258;2023-08-17T09:01:39;18.58;;;10.43;;
46897;SDS011;32646;50.958;6.258;2023-08-17T09:04:06;21.33;;;11.00;;
46897;SDS011;32646;50.958;6.258;2023-08-17T09:06:33;20.17;;;11.00;;
46897;SDS011;32646;50.958;6.258;2023-08-17T09:09:00;21.20;;;10.68;;
46897;SDS011;32646;50.958;6.258;2023-08-17T09:11:28;21.80;;;11.30;;
46897;SDS011;32646;50.958;6.258;2023-08-17T09:13:54;23.08;;;11.60;;
46897;SDS011;32646;50.958;6.258;2023-08-17T09:16:21;25.30;;;12.25;;
46897;SDS011;32646;50.958;6.258;2023-08-17T09:18:52;24.52;;;11.93;;
46897;SDS011;32646;50.958;6.258;2023-08-17T09:21:20;22.90;;;12.38;;
46897;SDS011;32646;50.958;6.258;2023-08-17T09:23:54;20.25;;;11.07;;
46897;SDS011;32646;50.958;6.258;2023-08-17T09:26:29;24.15;;;12.13;;
46897;SDS011;32646;50.958;6.258;2023-08-17T09:28:57;21.70;;;12.65;;
46897;SDS011;32646;50.958;6.258;2023-08-17T09:31:25;23.33;;;12.48;;
46897;SDS011;32646;50.958;6.258;2023-08-17T09:33:52;22.63;;;12.07;;
46897;SDS011;32646;50.958;6.258;2023-08-17T09:36:22;22.25;;;11.40;;
46897;SDS011;32646;50.958;6.258;2023-08-17T09:38:52;23.38;;;11.88;;
46897;SDS011;32646;50.958;6.258;2023-08-17T09:41:19;19.90;;;12.25;;
46897;SDS011;32646;50.958;6.258;2023-08-17T09:43:46;25.17;;;13.10;;
46897;SDS011;32646;50.958;6.258;2023-08-17T09:46:14;20.08;;;11.95;;
46897;SDS011;32646;50.958;6.258;2023-08-17T09:48:43;21.15;;;11.93;;
46897;SDS011;32646;50.958;6.258;2023-08-17T09:51:09;17.88;;;11.55;;
46897;SDS011;32646;50.958;6.258;2023-08-17T09:53:36;17.00;;;11.00;;
46897;SDS011;32646;50.958;6.258;2023-08-17T09:56:03;20.10;;;11.43;;
46897;SDS011;32646;50.958;6.258;2023-08-17T09:58:31;17.42;;;10.80;;
46897;SDS011;32646;50.958;6.258;2023-08-17T10:00:58;21.75;;;12.57;;
46897;SDS011;32646;50.958;6.258;2023-08-17T10:03:28;22.83;;;12.80;;
46897;SDS011;32646;50.958;6.258;2023-08-17T10:06:01;25.27;;;13.23;;
46897;SDS011;32646;50.958;6.258;2023-08-17T10:08:33;26.95;;;14.85;;
46897;SDS011;32646;50.958;6.258;2023-08-17T10:11:06;23.27;;;12.82;;
46897;SDS011;32646;50.958;6.258;2023-08-17T10:13:43;28.02;;;14.65;;
46897;SDS011;32646;50.958;6.258;2023-08-17T10:16:24;28.58;;;14.20;;
46897;SDS011;32646;50.958;6.258;2023-08-17T10:19:10;26.70;;;13.38;;
46897;SDS011;32646;50.958;6.258;2023-08-17T10:22:03;26.30;;;13.30;;
46897;SDS011;32646;50.958;6.258;2023-08-17T10:24:36;27.08;;;14.32;;
46897;SDS011;32646;50.958;6.258;2023-08-17T10:27:04;27.13;;;14.70;;
46897;SDS011;32646;50.958;6.258;2023-08-17T10:29:32;26.65;;;14.55;;
46897;SDS011;32646;50.958;6.258;2023-08-17T10:31:59;26.83;;;14.30;;
46897;SDS011;32646;50.958;6.258;2023-08-17T10:34:27;27.20;;;14.40;;
46897;SDS011;32646;50.958;6.258;2023-08-17T10:36:55;28.10;;;14.73;;
46897;SDS011;32646;50.958;6.258;2023-08-17T10:39:26;27.00;;;13.50;;
46897;SDS011;32646;50.958;6.258;2023-08-17T10:41:58;25.92;;;15.25;;
46897;SDS011;32646;50.958;6.258;2023-08-17T10:44:37;24.17;;;14.18;;
46897;SDS011;32646;50.958;6.258;2023-08-17T10:47:18;23.80;;;13.43;;
46897;SDS011;32646;50.958;6.258;2023-08-17T10:49:44;25.33;;;13.98;;
46897;SDS011;32646;50.958;6.258;2023-08-17T10:52:11;24.63;;;13.38;;
46897;SDS011;32646;50.958;6.258;2023-08-17T10:54:41;30.60;;;14.65;;
46897;SDS011;32646;50.958;6.258;2023-08-17T10:57:24;26.83;;;15.20;;
46897;SDS011;32646;50.958;6.258;2023-08-17T11:00:16;26.05;;;14.65;;
46897;SDS011;32646;50.958;6.258;2023-08-17T11:02:55;30.48;;;14.20;;
46897;SDS011;32646;50.958;6.258;2023-08-17T11:05:40;29.48;;;15.68;;
46897;SDS011;32646;50.958;6.258;2023-08-17T11:08:10;28.85;;;14.98;;
46897;SDS011;32646;50.958;6.258;2023-08-17T11:10:48;27.80;;;13.87;;
46897;SDS011;32646;50.958;6.258;2023-08-17T11:13:34;24.17;;;15.23;;
46897;SDS011;32646;50.958;6.258;2023-08-17T11:16:02;25.60;;;14.40;;
46897;SDS011;32646;50.958;6.258;2023-08-17T11:18:31;29.48;;;15.45;;
46897;SDS011;32646;50.958;6.258;2023-08-17T11:20:59;27.38;;;13.25;;
46897;SDS011;32646;50.958;6.258;2023-08-17T11:23:28;26.35;;;14.30;;
46897;SDS011;32646;50.958;6.258;2023-08-17T11:25:56;27.42;;;13.70;;
46897;SDS011;32646;50.958;6.258;2023-08-17T11:28:23;23.52;;;14.10;;
46897;SDS011;32646;50.958;6.258;2023-08-17T11:30:59;28.98;;;13.98;;
46897;SDS011;32646;50.958;6.258;2023-08-17T11:33:28;26.05;;;13.05;;
46897;SDS011;32646;50.958;6.258;2023-08-17T11:35:56;26.05;;;13.45;;
46897;SDS011;32646;50.958;6.258;2023-08-17T11:38:32;25.90;;;14.70;;
46897;SDS011;32646;50.958;6.258;2023-08-17T11:40:59;26.77;;;13.60;;
46897;SDS011;32646;50.958;6.258;2023-08-17T11:43:27;27.58;;;14.60;;
46897;SDS011;32646;50.958;6.258;2023-08-17T11:45:54;27.50;;;13.07;;
46897;SDS011;32646;50.958;6.258;2023-08-17T11:48:23;23.80;;;12.80;;
46897;SDS011;32646;50.958;6.258;2023-08-17T11:50:50;25.10;;;12.55;;
46897;SDS011;32646;50.958;6.258;2023-08-17T11:53:17;22.55;;;11.32;;
46897;SDS011;32646;50.958;6.258;2023-08-17T11:55:45;28.17;;;11.60;;
46897;SDS011;32646;50.958;6.258;2023-08-17T11:58:11;19.65;;;11.93;;
46897;SDS011;32646;50.958;6.258;2023-08-17T12:00:41;25.42;;;12.45;;
46897;SDS011;32646;50.958;6.258;2023-08-17T12:03:12;22.42;;;12.00;;
46897;SDS011;32646;50.958;6.258;2023-08-17T12:05:40;26.30;;;13.23;;
46897;SDS011;32646;50.958;6.258;2023-08-17T12:08:07;20.48;;;11.88;;
46897;SDS011;32646;50.958;6.258;2023-08-17T12:10:34;23.13;;;11.45;;
46897;SDS011;32646;50.958;6.258;2023-08-17T12:13:02;25.60;;;11.18;;
46897;SDS011;32646;50.958;6.258;2023-08-17T12:15:33;19.42;;;11.10;;
46897;SDS011;32646;50.958;6.258;2023-08-17T12:18:01;20.35;;;11.23;;
46897;SDS011;32646;50.958;6.258;2023-08-17T12:22:58;22.83;;;10.52;;
46897;SDS011;32646;50.958;6.258;2023-08-17T12:25:25;24.42;;;10.88;;
46897;SDS011;32646;50.958;6.258;2023-08-17T12:27:52;21.77;;;10.23;;
46897;SDS011;32646;50.958;6.258;2023-08-17T12:32:52;23.02;;;11.38;;
46897;SDS011;32646;50.958;6.258;2023-08-17T12:35:22;21.27;;;9.88;;
46897;SDS011;32646;50.958;6.258;2023-08-17T12:37:49;22.10;;;11.07;;
46897;SDS011;32646;50.958;6.258;2023-08-17T12:40:16;19.23;;;10.50;;
46897;SDS011;32646;50.958;6.258;2023-08-17T12:42:43;20.88;;;10.93;;
46897;SDS011;32646;50.958;6.258;2023-08-17T12:45:09;20.95;;;10.15;;
46897;SDS011;32646;50.958;6.258;2023-08-17T12:47:36;23.08;;;10.60;;
46897;SDS011;32646;50.958;6.258;2023-08-17T12:50:03;21.05;;;10.93;;
46897;SDS011;32646;50.958;6.258;2023-08-17T12:52:30;22.63;;;10.05;;
46897;SDS011;32646;50.958;6.258;2023-08-17T12:54:57;22.00;;;10.90;;
46897;SDS011;32646;50.958;6.258;2023-08-17T12:57:24;25.63;;;11.60;;
46897;SDS011;32646;50.958;6.258;2023-08-17T12:59:50;21.35;;;10.23;;
46897;SDS011;32646;50.958;6.258;2023-08-17T13:02:17;21.58;;;10.45;;
46897;SDS011;32646;50.958;6.258;2023-08-17T13:04:43;23.48;;;10.98;;
46897;SDS011;32646;50.958;6.258;2023-08-17T13:07:10;24.30;;;10.80;;
46897;SDS011;32646;50.958;6.258;2023-08-17T13:09:37;20.17;;;10.13;;
46897;SDS011;32646;50.958;6.258;2023-08-17T13:12:03;25.15;;;10.88;;
46897;SDS011;32646;50.958;6.258;2023-08-17T13:14:30;22.65;;;11.88;;
46897;SDS011;32646;50.958;6.258;2023-08-17T13:16:57;23.27;;;10.80;;
46897;SDS011;32646;50.958;6.258;2023-08-17T13:19:23;23.35;;;11.18;;
46897;SDS011;32646;50.958;6.258;2023-08-17T13:21:50;25.25;;;10.57;;
46897;SDS011;32646;50.958;6.258;2023-08-17T13:24:16;22.55;;;10.82;;
46897;SDS011;32646;50.958;6.258;2023-08-17T13:26:43;20.13;;;10.27;;
46897;SDS011;32646;50.958;6.258;2023-08-17T13:29:11;26.23;;;11.02;;
46897;SDS011;32646;50.958;6.258;2023-08-17T13:31:38;22.30;;;10.55;;
46897;SDS011;32646;50.958;6.258;2023-08-17T13:34:04;26.15;;;10.55;;
46897;SDS011;32646;50.958;6.258;2023-08-17T13:36:31;25.50;;;11.07;;
46897;SDS011;32646;50.958;6.258;2023-08-17T13:38:58;30.02;;;11.10;;
46897;SDS011;32646;50.958;6.258;2023-08-17T13:41:24;23.73;;;11.25;;
46897;SDS011;32646;50.958;6.258;2023-08-17T13:43:51;27.83;;;12.18;;
46897;SDS011;32646;50.958;6.258;2023-08-17T13:46:17;23.13;;;10.63;;
46897;SDS011;32646;50.958;6.258;2023-08-17T13:48:44;24.90;;;11.63;;
46897;SDS011;32646;50.958;6.258;2023-08-17T13:51:11;26.75;;;11.02;;
46897;SDS011;32646;50.958;6.258;2023-08-17T13:53:37;24.42;;;12.02;;
46897;SDS011;32646;50.958;6.258;2023-08-17T13:56:05;26.25;;;12.68;;
46897;SDS011;32646;50.958;6.258;2023-08-17T13:58:31;23.83;;;10.88;;
46897;SDS011;32646;50.958;6.258;2023-08-17T14:00:58;22.50;;;10.73;;
46897;SDS011;32646;50.958;6.258;2023-08-17T14:03:24;23.88;;;11.45;;
46897;SDS011;32646;50.958;6.258;2023-08-17T14:05:51;24.20;;;11.70;;
46897;SDS011;32646;50.958;6.258;2023-08-17T14:08:18;27.73;;;12.10;;
46897;SDS011;32646;50.958;6.258;2023-08-17T14:10:44;27.40;;;11.48;;
46897;SDS011;32646;50.958;6.258;2023-08-17T14:13:11;26.63;;;13.10;;
46897;SDS011;32646;50.958;6.258;2023-08-17T14:15:38;24.00;;;11.00;;
46897;SDS011;32646;50.958;6.258;2023-08-17T14:18:04;24.27;;;11.80;;
46897;SDS011;32646;50.958;6.258;2023-08-17T14:20:31;26.13;;;11.50;;
46897;SDS011;32646;50.958;6.258;2023-08-17T14:22:58;22.50;;;11.93;;
46897;SDS011;32646;50.958;6.258;2023-08-17T14:25:24;21.20;;;10.70;;
46897;SDS011;32646;50.958;6.258;2023-08-17T14:27:51;22.52;;;11.05;;
46897;SDS011;32646;50.958;6.258;2023-08-17T14:30:17;21.75;;;10.60;;
46897;SDS011;32646;50.958;6.258;2023-08-17T14:32:44;22.48;;;11.30;;
46897;SDS011;32646;50.958;6.258;2023-08-17T14:35:11;20.70;;;10.65;;
46897;SDS011;32646;50.958;6.258;2023-08-17T14:37:38;17.85;;;10.27;;
46897;SDS011;32646;50.958;6.258;2023-08-17T14:40:05;20.15;;;9.93;;